sensor_id;sensor_type;location;lat;lon;timestamp;temperature;humidity
11666;DHT22;5889;51.350;6.708;2022-10-16T00:02:12;14.20;99.90
11666;DHT22;5889;51.350;6.708;2022-10-16T00:04:39;14.20;99.90
11666;DHT22;5889;51.350;6.708;2022-10-16T00:07:06;14.20;99.90
11666;DHT22;5889;51.350;6.708;2022-10-16T00:09:33;14.20;99.90
11666;DHT22;5889;51.350;6.708;2022-10-16T00:12:01;14.10;99.90
11666;DHT22;5889;51.350;6.708;2022-10-16T00:14:29;14.10;99.90
11666;DHT22;5889;51.350;6.708;2022-10-16T00:16:56;14.10;99.90
11666;DHT22;5889;51.350;6.708;2022-10-16T00:19:23;14.10;99.90
11666;DHT22;5889;51.350;6.708;2022-10-16T00:21:49;14.10;99.90
11666;DHT22;5889;51.350;6.708;2022-10-16T00:24:16;14.00;99.90
11666;DHT22;5889;51.350;6.708;2022-10-16T00:26:43;14.00;99.90
11666;DHT22;5889;51.350;6.708;2022-10-16T00:29:11;14.00;99.90
11666;DHT22;5889;51.350;6.708;2022-10-16T00:31:38;14.00;99.90
11666;DHT22;5889;51.350;6.708;2022-10-16T00:34:04;14.00;99.90
11666;DHT22;5889;51.350;6.708;2022-10-16T00:36:31;14.00;99.90
11666;DHT22;5889;51.350;6.708;2022-10-16T00:38:58;14.00;99.90
11666;DHT22;5889;51.350;6.708;2022-10-16T00:41:26;14.00;99.90
11666;DHT22;5889;51.350;6.708;2022-10-16T00:43:56;13.90;99.90
11666;DHT22;5889;51.350;6.708;2022-10-16T00:46:26;13.90;99.90
11666;DHT22;5889;51.350;6.708;2022-10-16T00:48:57;14.00;99.90
11666;DHT22;5889;51.350;6.708;2022-10-16T00:51:29;13.90;99.90
11666;DHT22;5889;51.350;6.708;2022-10-16T00:53:57;13.90;99.90
11666;DHT22;5889;51.350;6.708;2022-10-16T00:56:24;13.90;99.90
11666;DHT22;5889;51.350;6.708;2022-10-16T00:58:51;13.90;99.90
11666;DHT22;5889;51.350;6.708;2022-10-16T01:01:17;13.90;99.90
11666;DHT22;5889;51.350;6.708;2022-10-16T01:03:45;13.90;99.90
11666;DHT22;5889;51.350;6.708;2022-10-16T01:06:21;13.90;99.90
11666;DHT22;5889;51.350;6.708;2022-10-16T01:08:59;13.90;99.90
11666;DHT22;5889;51.350;6.708;2022-10-16T01:11:32;13.90;99.90
11666;DHT22;5889;51.350;6.708;2022-10-16T01:14:09;13.90;99.90
11666;DHT22;5889;51.350;6.708;2022-10-16T01:16:42;13.90;99.90
11666;DHT22;5889;51.350;6.708;2022-10-16T01:19:16;13.80;99.90
11666;DHT22;5889;51.350;6.708;2022-10-16T01:21:46;13.90;99.90
11666;DHT22;5889;51.350;6.708;2022-10-16T01:24:23;13.80;99.90
11666;DHT22;5889;51.350;6.708;2022-10-16T01:27:09;13.80;99.90
11666;DHT22;5889;51.350;6.708;2022-10-16T01:29:39;13.80;99.90
11666;DHT22;5889;51.350;6.708;2022-10-16T01:32:12;13.90;99.90
11666;DHT22;5889;51.350;6.708;2022-10-16T01:34:48;13.90;99.90
11666;DHT22;5889;51.350;6.708;2022-10-16T01:37:20;13.90;99.90
11666;DHT22;5889;51.350;6.708;2022-10-16T01:39:50;13.90;99.90
11666;DHT22;5889;51.350;6.708;2022-10-16T01:42:23;14.00;99.90
11666;DHT22;5889;51.350;6.708;2022-10-16T01:44:52;14.00;99.90
11666;DHT22;5889;51.350;6.708;2022-10-16T01:47:23;14.00;99.90
11666;DHT22;5889;51.350;6.708;2022-10-16T01:49:52;14.00;99.90
11666;DHT22;5889;51.350;6.708;2022-10-16T01:52:22;14.00;99.90
11666;DHT22;5889;51.350;6.708;2022-10-16T01:54:52;14.00;99.90
11666;DHT22;5889;51.350;6.708;2022-10-16T01:57:21;13.90;99.90
11666;DHT22;5889;51.350;6.708;2022-10-16T01:59:54;14.00;99.90
11666;DHT22;5889;51.350;6.708;2022-10-16T02:02:23;13.90;99.90
11666;DHT22;5889;51.350;6.708;2022-10-16T02:04:56;13.80;99.90
11666;DHT22;5889;51.350;6.708;2022-10-16T02:07:24;13.80;99.90
11666;DHT22;5889;51.350;6.708;2022-10-16T02:09:51;13.80;99.90
11666;DHT22;5889;51.350;6.708;2022-10-16T02:12:24;13.80;99.90
11666;DHT22;5889;51.350;6.708;2022-10-16T02:14:52;13.80;99.90
11666;DHT22;5889;51.350;6.708;2022-10-16T02:17:20;13.70;99.90
11666;DHT22;5889;51.350;6.708;2022-10-16T02:19:48;13.80;99.90
11666;DHT22;5889;51.350;6.708;2022-10-16T02:22:18;13.70;99.90
11666;DHT22;5889;51.350;6.708;2022-10-16T02:24:53;13.80;99.90
11666;DHT22;5889;51.350;6.708;2022-10-16T02:27:27;13.80;99.90
11666;DHT22;5889;51.350;6.708;2022-10-16T02:30:02;13.80;99.90
11666;DHT22;5889;51.350;6.708;2022-10-16T02:32:34;13.80;99.90
11666;DHT22;5889;51.350;6.708;2022-10-16T02:35:02;13.80;99.90
11666;DHT22;5889;51.350;6.708;2022-10-16T02:37:30;13.80;99.90
11666;DHT22;5889;51.350;6.708;2022-10-16T02:39:58;13.80;99.90
11666;DHT22;5889;51.350;6.708;2022-10-16T02:42:32;13.90;99.90
11666;DHT22;5889;51.350;6.708;2022-10-16T02:44:59;13.90;99.90
11666;DHT22;5889;51.350;6.708;2022-10-16T02:47:26;13.80;99.90
11666;DHT22;5889;51.350;6.708;2022-10-16T02:49:53;13.80;99.90
11666;DHT22;5889;51.350;6.708;2022-10-16T02:52:20;13.80;99.90
11666;DHT22;5889;51.350;6.708;2022-10-16T02:54:47;13.90;99.90
11666;DHT22;5889;51.350;6.708;2022-10-16T02:57:14;13.80;99.90
11666;DHT22;5889;51.350;6.708;2022-10-16T02:59:42;13.90;99.90
11666;DHT22;5889;51.350;6.708;2022-10-16T03:02:09;13.90;99.90
11666;DHT22;5889;51.350;6.708;2022-10-16T03:04:36;13.90;99.90
11666;DHT22;5889;51.350;6.708;2022-10-16T03:07:03;13.90;99.90
11666;DHT22;5889;51.350;6.708;2022-10-16T03:09:30;13.90;99.90
11666;DHT22;5889;51.350;6.708;2022-10-16T03:11:56;13.80;99.90
11666;DHT22;5889;51.350;6.708;2022-10-16T03:14:23;13.90;99.90
11666;DHT22;5889;51.350;6.708;2022-10-16T03:16:51;13.90;99.90
11666;DHT22;5889;51.350;6.708;2022-10-16T03:19:18;13.90;99.90
11666;DHT22;5889;51.350;6.708;2022-10-16T03:21:45;13.90;99.90
11666;DHT22;5889;51.350;6.708;2022-10-16T03:24:12;13.90;99.90
11666;DHT22;5889;51.350;6.708;2022-10-16T03:26:39;13.90;99.90
11666;DHT22;5889;51.350;6.708;2022-10-16T03:29:06;13.90;99.90
11666;DHT22;5889;51.350;6.708;2022-10-16T03:31:32;13.90;99.90
11666;DHT22;5889;51.350;6.708;2022-10-16T03:34:00;13.90;99.90
11666;DHT22;5889;51.350;6.708;2022-10-16T03:36:27;13.90;99.90
11666;DHT22;5889;51.350;6.708;2022-10-16T03:38:54;13.90;99.90
11666;DHT22;5889;51.350;6.708;2022-10-16T03:41:20;13.90;99.90
11666;DHT22;5889;51.350;6.708;2022-10-16T03:43:47;13.80;99.90
11666;DHT22;5889;51.350;6.708;2022-10-16T03:46:14;13.80;99.90
11666;DHT22;5889;51.350;6.708;2022-10-16T03:48:41;13.80;99.90
11666;DHT22;5889;51.350;6.708;2022-10-16T03:51:09;13.80;99.90
11666;DHT22;5889;51.350;6.708;2022-10-16T03:53:35;13.70;99.90
11666;DHT22;5889;51.350;6.708;2022-10-16T03:56:02;13.70;99.90
11666;DHT22;5889;51.350;6.708;2022-10-16T03:58:29;13.70;99.90
11666;DHT22;5889;51.350;6.708;2022-10-16T04:00:56;13.70;99.90
11666;DHT22;5889;51.350;6.708;2022-10-16T04:03:23;13.70;99.90
11666;DHT22;5889;51.350;6.708;2022-10-16T04:05:50;13.70;99.90
11666;DHT22;5889;51.350;6.708;2022-10-16T04:08:18;13.60;99.90
11666;DHT22;5889;51.350;6.708;2022-10-16T04:10:45;13.60;99.90
11666;DHT22;5889;51.350;6.708;2022-10-16T04:13:13;13.60;99.90
11666;DHT22;5889;51.350;6.708;2022-10-16T04:15:39;13.60;99.90
11666;DHT22;5889;51.350;6.708;2022-10-16T04:18:06;13.60;99.90
11666;DHT22;5889;51.350;6.708;2022-10-16T04:20:34;13.60;99.90
11666;DHT22;5889;51.350;6.708;2022-10-16T04:23:01;13.50;99.90
11666;DHT22;5889;51.350;6.708;2022-10-16T04:25:29;13.50;99.90
11666;DHT22;5889;51.350;6.708;2022-10-16T04:27:56;13.50;99.90
11666;DHT22;5889;51.350;6.708;2022-10-16T04:30:23;13.50;99.90
11666;DHT22;5889;51.350;6.708;2022-10-16T04:32:51;13.50;99.90
11666;DHT22;5889;51.350;6.708;2022-10-16T04:35:19;13.50;99.90
11666;DHT22;5889;51.350;6.708;2022-10-16T04:37:46;13.50;99.90
11666;DHT22;5889;51.350;6.708;2022-10-16T04:40:13;13.40;99.90
11666;DHT22;5889;51.350;6.708;2022-10-16T04:42:41;13.40;99.90
11666;DHT22;5889;51.350;6.708;2022-10-16T04:45:09;13.40;99.90
11666;DHT22;5889;51.350;6.708;2022-10-16T04:47:36;13.40;99.90
11666;DHT22;5889;51.350;6.708;2022-10-16T04:50:03;13.40;99.90
11666;DHT22;5889;51.350;6.708;2022-10-16T04:52:30;13.40;99.90
11666;DHT22;5889;51.350;6.708;2022-10-16T04:54:57;13.40;99.90
11666;DHT22;5889;51.350;6.708;2022-10-16T04:57:27;13.30;99.90
11666;DHT22;5889;51.350;6.708;2022-10-16T04:59:55;13.30;99.90
11666;DHT22;5889;51.350;6.708;2022-10-16T05:02:23;13.30;99.90
11666;DHT22;5889;51.350;6.708;2022-10-16T05:04:49;13.30;99.90
11666;DHT22;5889;51.350;6.708;2022-10-16T05:07:16;13.30;99.90
11666;DHT22;5889;51.350;6.708;2022-10-16T05:09:43;13.30;99.90
11666;DHT22;5889;51.350;6.708;2022-10-16T05:12:10;13.30;99.90
11666;DHT22;5889;51.350;6.708;2022-10-16T05:14:37;13.30;99.90
11666;DHT22;5889;51.350;6.708;2022-10-16T05:17:06;13.30;99.90
11666;DHT22;5889;51.350;6.708;2022-10-16T05:19:32;13.30;99.90
11666;DHT22;5889;51.350;6.708;2022-10-16T05:21:59;13.30;99.90
11666;DHT22;5889;51.350;6.708;2022-10-16T05:24:26;13.30;99.90
11666;DHT22;5889;51.350;6.708;2022-10-16T05:26:53;13.30;99.90
11666;DHT22;5889;51.350;6.708;2022-10-16T05:29:21;13.30;99.90
11666;DHT22;5889;51.350;6.708;2022-10-16T05:31:50;13.30;99.90
11666;DHT22;5889;51.350;6.708;2022-10-16T05:34:18;13.30;99.90
11666;DHT22;5889;51.350;6.708;2022-10-16T05:36:45;13.20;99.90
11666;DHT22;5889;51.350;6.708;2022-10-16T05:39:14;13.30;99.90
11666;DHT22;5889;51.350;6.708;2022-10-16T05:41:41;13.30;99.90
11666;DHT22;5889;51.350;6.708;2022-10-16T05:44:08;13.30;99.90
11666;DHT22;5889;51.350;6.708;2022-10-16T05:46:35;13.20;99.90
11666;DHT22;5889;51.350;6.708;2022-10-16T05:49:02;13.30;99.90
11666;DHT22;5889;51.350;6.708;2022-10-16T05:51:31;13.20;99.90
11666;DHT22;5889;51.350;6.708;2022-10-16T05:53:58;13.30;99.90
11666;DHT22;5889;51.350;6.708;2022-10-16T05:56:24;13.30;99.90
11666;DHT22;5889;51.350;6.708;2022-10-16T05:58:51;13.20;99.90
11666;DHT22;5889;51.350;6.708;2022-10-16T06:01:19;13.20;99.90
11666;DHT22;5889;51.350;6.708;2022-10-16T06:03:50;13.20;99.90
11666;DHT22;5889;51.350;6.708;2022-10-16T06:06:19;13.20;99.90
11666;DHT22;5889;51.350;6.708;2022-10-16T06:08:48;13.20;99.90
11666;DHT22;5889;51.350;6.708;2022-10-16T06:11:17;13.20;99.90
11666;DHT22;5889;51.350;6.708;2022-10-16T06:13:44;13.20;99.90
11666;DHT22;5889;51.350;6.708;2022-10-16T06:16:13;13.20;99.90
11666;DHT22;5889;51.350;6.708;2022-10-16T06:18:40;13.20;99.90
11666;DHT22;5889;51.350;6.708;2022-10-16T06:21:08;13.20;99.90
11666;DHT22;5889;51.350;6.708;2022-10-16T06:23:35;13.20;99.90
11666;DHT22;5889;51.350;6.708;2022-10-16T06:26:07;13.20;99.90
11666;DHT22;5889;51.350;6.708;2022-10-16T06:28:35;13.20;99.90
11666;DHT22;5889;51.350;6.708;2022-10-16T06:31:03;13.20;99.90
11666;DHT22;5889;51.350;6.708;2022-10-16T06:33:30;13.20;99.90
11666;DHT22;5889;51.350;6.708;2022-10-16T06:36:02;13.30;99.90
11666;DHT22;5889;51.350;6.708;2022-10-16T06:38:30;13.30;99.90
11666;DHT22;5889;51.350;6.708;2022-10-16T06:40:57;13.30;99.90
11666;DHT22;5889;51.350;6.708;2022-10-16T06:43:25;13.30;99.90
11666;DHT22;5889;51.350;6.708;2022-10-16T06:45:52;13.40;99.90
11666;DHT22;5889;51.350;6.708;2022-10-16T06:48:20;13.40;99.90
11666;DHT22;5889;51.350;6.708;2022-10-16T06:50:56;13.40;99.90
11666;DHT22;5889;51.350;6.708;2022-10-16T06:53:23;13.40;99.90
11666;DHT22;5889;51.350;6.708;2022-10-16T06:55:50;13.40;99.90
11666;DHT22;5889;51.350;6.708;2022-10-16T06:58:17;13.40;99.90
11666;DHT22;5889;51.350;6.708;2022-10-16T07:00:46;13.40;99.90
11666;DHT22;5889;51.350;6.708;2022-10-16T07:03:13;13.40;99.90
11666;DHT22;5889;51.350;6.708;2022-10-16T07:05:40;13.40;99.90
11666;DHT22;5889;51.350;6.708;2022-10-16T07:08:08;13.40;99.90
11666;DHT22;5889;51.350;6.708;2022-10-16T07:10:35;13.40;99.90
11666;DHT22;5889;51.350;6.708;2022-10-16T07:13:02;13.40;99.90
11666;DHT22;5889;51.350;6.708;2022-10-16T07:15:29;13.40;99.90
11666;DHT22;5889;51.350;6.708;2022-10-16T07:17:57;13.40;99.90
11666;DHT22;5889;51.350;6.708;2022-10-16T07:20:24;13.40;99.90
11666;DHT22;5889;51.350;6.708;2022-10-16T07:22:51;13.40;99.90
11666;DHT22;5889;51.350;6.708;2022-10-16T07:25:18;13.50;99.90
11666;DHT22;5889;51.350;6.708;2022-10-16T07:27:45;13.50;99.90
11666;DHT22;5889;51.350;6.708;2022-10-16T07:30:12;13.50;99.90
11666;DHT22;5889;51.350;6.708;2022-10-16T07:32:39;13.60;99.90
11666;DHT22;5889;51.350;6.708;2022-10-16T07:35:08;13.60;99.90
11666;DHT22;5889;51.350;6.708;2022-10-16T07:37:35;13.70;99.90
11666;DHT22;5889;51.350;6.708;2022-10-16T07:40:02;13.80;99.90
11666;DHT22;5889;51.350;6.708;2022-10-16T07:42:29;13.90;99.90
11666;DHT22;5889;51.350;6.708;2022-10-16T07:44:56;13.90;99.90
11666;DHT22;5889;51.350;6.708;2022-10-16T07:47:23;14.10;99.90
11666;DHT22;5889;51.350;6.708;2022-10-16T07:49:50;14.10;99.90
11666;DHT22;5889;51.350;6.708;2022-10-16T07:52:18;14.20;99.90
11666;DHT22;5889;51.350;6.708;2022-10-16T07:54:45;14.30;99.90
11666;DHT22;5889;51.350;6.708;2022-10-16T07:57:12;14.30;99.90
11666;DHT22;5889;51.350;6.708;2022-10-16T07:59:44;14.40;99.90
11666;DHT22;5889;51.350;6.708;2022-10-16T08:02:12;14.50;99.90
11666;DHT22;5889;51.350;6.708;2022-10-16T08:04:39;14.60;99.90
11666;DHT22;5889;51.350;6.708;2022-10-16T08:07:07;14.70;99.90
11666;DHT22;5889;51.350;6.708;2022-10-16T08:09:35;14.80;99.90
11666;DHT22;5889;51.350;6.708;2022-10-16T08:12:02;14.90;99.90
11666;DHT22;5889;51.350;6.708;2022-10-16T08:14:30;15.00;99.90
11666;DHT22;5889;51.350;6.708;2022-10-16T08:16:57;15.10;99.90
11666;DHT22;5889;51.350;6.708;2022-10-16T08:19:24;15.20;99.90
11666;DHT22;5889;51.350;6.708;2022-10-16T08:21:51;15.30;99.90
11666;DHT22;5889;51.350;6.708;2022-10-16T08:24:18;15.30;99.90
11666;DHT22;5889;51.350;6.708;2022-10-16T08:26:46;15.40;99.90
11666;DHT22;5889;51.350;6.708;2022-10-16T08:29:14;15.50;99.90
11666;DHT22;5889;51.350;6.708;2022-10-16T08:31:41;15.60;99.90
11666;DHT22;5889;51.350;6.708;2022-10-16T08:34:07;15.70;99.90
11666;DHT22;5889;51.350;6.708;2022-10-16T08:36:34;15.80;99.90
11666;DHT22;5889;51.350;6.708;2022-10-16T08:39:01;15.90;99.90
11666;DHT22;5889;51.350;6.708;2022-10-16T08:41:41;16.00;99.90
11666;DHT22;5889;51.350;6.708;2022-10-16T08:44:30;16.10;99.90
11666;DHT22;5889;51.350;6.708;2022-10-16T08:47:16;16.20;99.90
11666;DHT22;5889;51.350;6.708;2022-10-16T08:49:54;16.20;99.90
11666;DHT22;5889;51.350;6.708;2022-10-16T08:52:22;16.30;99.90
11666;DHT22;5889;51.350;6.708;2022-10-16T08:54:53;16.40;99.90
11666;DHT22;5889;51.350;6.708;2022-10-16T08:57:24;16.50;99.90
11666;DHT22;5889;51.350;6.708;2022-10-16T08:59:53;16.60;99.90
11666;DHT22;5889;51.350;6.708;2022-10-16T09:02:31;16.70;99.90
11666;DHT22;5889;51.350;6.708;2022-10-16T09:05:24;16.80;99.90
11666;DHT22;5889;51.350;6.708;2022-10-16T09:08:03;16.90;99.90
11666;DHT22;5889;51.350;6.708;2022-10-16T09:10:42;17.00;99.90
11666;DHT22;5889;51.350;6.708;2022-10-16T09:13:19;17.00;99.90
11666;DHT22;5889;51.350;6.708;2022-10-16T09:15:53;17.20;99.90
11666;DHT22;5889;51.350;6.708;2022-10-16T09:18:26;17.20;99.90
11666;DHT22;5889;51.350;6.708;2022-10-16T09:20:59;17.20;99.90
11666;DHT22;5889;51.350;6.708;2022-10-16T09:23:33;17.30;99.90
11666;DHT22;5889;51.350;6.708;2022-10-16T09:26:01;17.40;99.90
11666;DHT22;5889;51.350;6.708;2022-10-16T09:28:29;17.40;99.90
11666;DHT22;5889;51.350;6.708;2022-10-16T09:30:57;17.50;99.90
11666;DHT22;5889;51.350;6.708;2022-10-16T09:33:28;17.60;99.90
11666;DHT22;5889;51.350;6.708;2022-10-16T09:35:57;17.70;99.90
11666;DHT22;5889;51.350;6.708;2022-10-16T09:38:28;17.80;99.90
11666;DHT22;5889;51.350;6.708;2022-10-16T09:40:56;17.90;99.90
11666;DHT22;5889;51.350;6.708;2022-10-16T09:43:26;18.00;99.90
11666;DHT22;5889;51.350;6.708;2022-10-16T09:46:00;18.10;99.90
11666;DHT22;5889;51.350;6.708;2022-10-16T09:48:31;18.00;99.90
11666;DHT22;5889;51.350;6.708;2022-10-16T09:51:02;18.10;99.90
11666;DHT22;5889;51.350;6.708;2022-10-16T09:53:39;18.20;99.90
11666;DHT22;5889;51.350;6.708;2022-10-16T09:56:06;18.30;99.90
11666;DHT22;5889;51.350;6.708;2022-10-16T09:59:12;18.30;99.90
11666;DHT22;5889;51.350;6.708;2022-10-16T10:01:42;18.40;99.90
11666;DHT22;5889;51.350;6.708;2022-10-16T10:04:10;18.40;99.90
11666;DHT22;5889;51.350;6.708;2022-10-16T10:06:41;18.40;99.90
11666;DHT22;5889;51.350;6.708;2022-10-16T10:09:18;18.40;99.90
11666;DHT22;5889;51.350;6.708;2022-10-16T10:11:48;18.50;99.90
11666;DHT22;5889;51.350;6.708;2022-10-16T10:14:22;18.50;99.90
11666;DHT22;5889;51.350;6.708;2022-10-16T10:16:51;18.70;99.90
11666;DHT22;5889;51.350;6.708;2022-10-16T10:19:20;18.70;99.90
11666;DHT22;5889;51.350;6.708;2022-10-16T10:21:48;18.80;99.90
11666;DHT22;5889;51.350;6.708;2022-10-16T10:24:16;18.70;99.90
11666;DHT22;5889;51.350;6.708;2022-10-16T10:26:49;18.60;99.90
11666;DHT22;5889;51.350;6.708;2022-10-16T10:29:24;18.70;99.90
11666;DHT22;5889;51.350;6.708;2022-10-16T10:32:03;18.80;99.90
11666;DHT22;5889;51.350;6.708;2022-10-16T10:34:52;18.80;99.90
11666;DHT22;5889;51.350;6.708;2022-10-16T10:37:35;18.90;99.90
11666;DHT22;5889;51.350;6.708;2022-10-16T10:40:11;19.00;99.90
11666;DHT22;5889;51.350;6.708;2022-10-16T10:42:46;19.00;99.90
11666;DHT22;5889;51.350;6.708;2022-10-16T10:45:20;19.10;99.90
11666;DHT22;5889;51.350;6.708;2022-10-16T10:48:06;19.10;99.90
11666;DHT22;5889;51.350;6.708;2022-10-16T10:50:42;19.10;99.90
11666;DHT22;5889;51.350;6.708;2022-10-16T10:53:16;19.10;99.90
11666;DHT22;5889;51.350;6.708;2022-10-16T10:55:50;19.20;99.90
11666;DHT22;5889;51.350;6.708;2022-10-16T11:01:21;19.30;99.90
11666;DHT22;5889;51.350;6.708;2022-10-16T11:04:09;19.20;99.90
11666;DHT22;5889;51.350;6.708;2022-10-16T11:06:41;19.20;99.90
11666;DHT22;5889;51.350;6.708;2022-10-16T11:09:12;19.20;99.90
11666;DHT22;5889;51.350;6.708;2022-10-16T11:11:42;19.30;99.90
11666;DHT22;5889;51.350;6.708;2022-10-16T11:14:15;19.30;99.90
11666;DHT22;5889;51.350;6.708;2022-10-16T11:16:47;19.40;99.90
11666;DHT22;5889;51.350;6.708;2022-10-16T11:19:25;19.30;99.90
11666;DHT22;5889;51.350;6.708;2022-10-16T11:21:58;19.30;99.90
11666;DHT22;5889;51.350;6.708;2022-10-16T11:24:34;19.30;99.90
11666;DHT22;5889;51.350;6.708;2022-10-16T11:27:07;19.40;99.90
11666;DHT22;5889;51.350;6.708;2022-10-16T11:29:35;19.40;99.90
11666;DHT22;5889;51.350;6.708;2022-10-16T11:32:14;19.50;99.90
11666;DHT22;5889;51.350;6.708;2022-10-16T11:34:49;19.70;99.90
11666;DHT22;5889;51.350;6.708;2022-10-16T11:37:20;19.70;99.90
11666;DHT22;5889;51.350;6.708;2022-10-16T11:39:50;19.80;99.90
11666;DHT22;5889;51.350;6.708;2022-10-16T11:42:22;19.90;99.90
11666;DHT22;5889;51.350;6.708;2022-10-16T11:44:54;19.90;99.90
11666;DHT22;5889;51.350;6.708;2022-10-16T11:47:30;19.90;99.90
11666;DHT22;5889;51.350;6.708;2022-10-16T11:50:02;20.00;99.90
11666;DHT22;5889;51.350;6.708;2022-10-16T11:52:36;20.10;99.90
11666;DHT22;5889;51.350;6.708;2022-10-16T11:55:13;20.10;99.90
11666;DHT22;5889;51.350;6.708;2022-10-16T11:57:44;20.10;99.90
11666;DHT22;5889;51.350;6.708;2022-10-16T12:00:20;20.20;99.90
11666;DHT22;5889;51.350;6.708;2022-10-16T12:02:56;20.20;99.90
11666;DHT22;5889;51.350;6.708;2022-10-16T12:05:32;20.20;99.90
11666;DHT22;5889;51.350;6.708;2022-10-16T12:08:06;20.20;99.90
11666;DHT22;5889;51.350;6.708;2022-10-16T12:10:35;20.10;99.90
11666;DHT22;5889;51.350;6.708;2022-10-16T12:13:03;20.10;99.90
11666;DHT22;5889;51.350;6.708;2022-10-16T12:15:31;20.10;99.90
11666;DHT22;5889;51.350;6.708;2022-10-16T12:17:59;20.10;99.90
11666;DHT22;5889;51.350;6.708;2022-10-16T12:20:30;20.10;99.90
11666;DHT22;5889;51.350;6.708;2022-10-16T12:23:00;20.10;99.90
11666;DHT22;5889;51.350;6.708;2022-10-16T12:25:30;20.10;99.90
11666;DHT22;5889;51.350;6.708;2022-10-16T12:28:03;20.10;99.90
11666;DHT22;5889;51.350;6.708;2022-10-16T12:30:32;20.00;99.90
11666;DHT22;5889;51.350;6.708;2022-10-16T12:33:01;20.00;99.90
11666;DHT22;5889;51.350;6.708;2022-10-16T12:35:32;20.00;99.90
11666;DHT22;5889;51.350;6.708;2022-10-16T12:38:16;20.10;99.90
11666;DHT22;5889;51.350;6.708;2022-10-16T12:40:44;20.10;99.90
11666;DHT22;5889;51.350;6.708;2022-10-16T12:43:35;20.10;99.90
11666;DHT22;5889;51.350;6.708;2022-10-16T12:46:05;20.10;99.90
11666;DHT22;5889;51.350;6.708;2022-10-16T12:48:47;20.10;99.90
11666;DHT22;5889;51.350;6.708;2022-10-16T12:51:24;20.20;99.90
11666;DHT22;5889;51.350;6.708;2022-10-16T12:54:01;20.20;99.90
11666;DHT22;5889;51.350;6.708;2022-10-16T12:56:38;20.30;99.90
11666;DHT22;5889;51.350;6.708;2022-10-16T12:59:14;20.30;99.90
11666;DHT22;5889;51.350;6.708;2022-10-16T13:01:54;20.20;99.90
11666;DHT22;5889;51.350;6.708;2022-10-16T13:04:40;20.10;99.90
11666;DHT22;5889;51.350;6.708;2022-10-16T13:07:22;20.00;99.90
11666;DHT22;5889;51.350;6.708;2022-10-16T13:10:05;20.00;99.90
11666;DHT22;5889;51.350;6.708;2022-10-16T13:12:54;20.00;99.90
11666;DHT22;5889;51.350;6.708;2022-10-16T13:15:34;19.90;99.90
11666;DHT22;5889;51.350;6.708;2022-10-16T13:18:13;19.90;99.90
11666;DHT22;5889;51.350;6.708;2022-10-16T13:20:56;19.80;99.90
11666;DHT22;5889;51.350;6.708;2022-10-16T13:23:31;19.90;99.90
11666;DHT22;5889;51.350;6.708;2022-10-16T13:26:09;19.80;99.90
11666;DHT22;5889;51.350;6.708;2022-10-16T13:28:38;19.70;99.90
11666;DHT22;5889;51.350;6.708;2022-10-16T13:31:12;19.70;99.90
11666;DHT22;5889;51.350;6.708;2022-10-16T13:33:43;19.80;99.90
11666;DHT22;5889;51.350;6.708;2022-10-16T13:36:19;19.80;99.90
11666;DHT22;5889;51.350;6.708;2022-10-16T13:38:47;19.90;99.90
11666;DHT22;5889;51.350;6.708;2022-10-16T13:41:17;19.90;99.90
11666;DHT22;5889;51.350;6.708;2022-10-16T13:43:47;19.90;99.90
11666;DHT22;5889;51.350;6.708;2022-10-16T13:46:16;20.00;99.90
11666;DHT22;5889;51.350;6.708;2022-10-16T13:48:44;20.00;99.90
11666;DHT22;5889;51.350;6.708;2022-10-16T13:51:13;20.10;99.70
11666;DHT22;5889;51.350;6.708;2022-10-16T13:53:41;20.20;99.40
11666;DHT22;5889;51.350;6.708;2022-10-16T13:56:11;20.20;99.30
11666;DHT22;5889;51.350;6.708;2022-10-16T13:58:38;20.30;98.90
11666;DHT22;5889;51.350;6.708;2022-10-16T14:01:16;20.30;98.90
11666;DHT22;5889;51.350;6.708;2022-10-16T14:03:43;20.40;98.70
11666;DHT22;5889;51.350;6.708;2022-10-16T14:06:13;20.50;98.40
11666;DHT22;5889;51.350;6.708;2022-10-16T14:08:43;20.50;98.40
11666;DHT22;5889;51.350;6.708;2022-10-16T14:11:12;20.50;98.20
11666;DHT22;5889;51.350;6.708;2022-10-16T14:13:43;20.40;98.30
11666;DHT22;5889;51.350;6.708;2022-10-16T14:16:16;20.20;98.50
11666;DHT22;5889;51.350;6.708;2022-10-16T14:18:46;20.10;99.00
11666;DHT22;5889;51.350;6.708;2022-10-16T14:21:18;20.00;99.30
11666;DHT22;5889;51.350;6.708;2022-10-16T14:23:45;19.90;99.40
11666;DHT22;5889;51.350;6.708;2022-10-16T14:26:15;19.90;99.60
11666;DHT22;5889;51.350;6.708;2022-10-16T14:28:43;20.00;99.80
11666;DHT22;5889;51.350;6.708;2022-10-16T14:31:28;20.00;99.90
11666;DHT22;5889;51.350;6.708;2022-10-16T14:33:56;19.90;99.90
11666;DHT22;5889;51.350;6.708;2022-10-16T14:36:24;19.90;99.90
11666;DHT22;5889;51.350;6.708;2022-10-16T14:38:59;20.00;99.90
11666;DHT22;5889;51.350;6.708;2022-10-16T14:41:30;20.00;99.90
11666;DHT22;5889;51.350;6.708;2022-10-16T14:44:00;20.00;99.90
11666;DHT22;5889;51.350;6.708;2022-10-16T14:46:33;19.90;99.90
11666;DHT22;5889;51.350;6.708;2022-10-16T14:49:05;19.90;99.90
11666;DHT22;5889;51.350;6.708;2022-10-16T14:51:39;19.90;99.90
11666;DHT22;5889;51.350;6.708;2022-10-16T14:54:08;20.00;99.90
11666;DHT22;5889;51.350;6.708;2022-10-16T14:56:45;20.00;99.90
11666;DHT22;5889;51.350;6.708;2022-10-16T14:59:15;20.00;99.90
11666;DHT22;5889;51.350;6.708;2022-10-16T15:01:43;19.90;99.90
11666;DHT22;5889;51.350;6.708;2022-10-16T15:04:12;19.90;99.90
11666;DHT22;5889;51.350;6.708;2022-10-16T15:06:39;19.80;99.90
11666;DHT22;5889;51.350;6.708;2022-10-16T15:09:05;19.80;99.90
11666;DHT22;5889;51.350;6.708;2022-10-16T15:11:33;19.80;99.90
11666;DHT22;5889;51.350;6.708;2022-10-16T15:14:01;19.80;99.90
11666;DHT22;5889;51.350;6.708;2022-10-16T15:16:29;19.70;99.90
11666;DHT22;5889;51.350;6.708;2022-10-16T15:18:55;19.70;99.90
11666;DHT22;5889;51.350;6.708;2022-10-16T15:21:25;19.80;99.90
11666;DHT22;5889;51.350;6.708;2022-10-16T15:23:53;19.70;99.90
11666;DHT22;5889;51.350;6.708;2022-10-16T15:26:22;19.70;99.90
11666;DHT22;5889;51.350;6.708;2022-10-16T15:28:49;19.70;99.90
11666;DHT22;5889;51.350;6.708;2022-10-16T15:31:17;19.70;99.90
11666;DHT22;5889;51.350;6.708;2022-10-16T15:33:44;19.60;99.90
11666;DHT22;5889;51.350;6.708;2022-10-16T15:36:16;19.60;99.90
11666;DHT22;5889;51.350;6.708;2022-10-16T15:38:43;19.60;99.90
11666;DHT22;5889;51.350;6.708;2022-10-16T15:41:10;19.50;99.90
11666;DHT22;5889;51.350;6.708;2022-10-16T15:43:37;19.50;99.90
11666;DHT22;5889;51.350;6.708;2022-10-16T15:46:05;19.40;99.90
11666;DHT22;5889;51.350;6.708;2022-10-16T15:48:35;19.30;99.90
11666;DHT22;5889;51.350;6.708;2022-10-16T15:51:05;19.30;99.90
11666;DHT22;5889;51.350;6.708;2022-10-16T15:53:31;19.20;99.90
11666;DHT22;5889;51.350;6.708;2022-10-16T15:56:01;19.20;99.90
11666;DHT22;5889;51.350;6.708;2022-10-16T15:58:28;19.10;99.90
11666;DHT22;5889;51.350;6.708;2022-10-16T16:03:24;19.00;99.90
11666;DHT22;5889;51.350;6.708;2022-10-16T16:05:52;19.00;99.90
11666;DHT22;5889;51.350;6.708;2022-10-16T16:08:19;18.90;99.90
11666;DHT22;5889;51.350;6.708;2022-10-16T16:10:57;18.90;99.90